Miami Beach, Florida
Current Conditions -  °F | °C
As of 4:53 PM on Tuesday 25 Nov 2014 (Local Time) from KMIA Reporting Station
Broken Clouds Broken Clouds  
Wind Chill: 81°   Ceiling: 1800
Heat Index: 86°   Visibility: 10mi
Dew Point: 74°   Wind: 10mph
Humidity: 79%   Direction: 150°SSE
Pressure: 29.94"   Gusts: 20mph
Location:  25.81°N, 80.13°W
Report Text: KMIA 252153Z 15009G17KT 10SM BKN018 BKN027 BKN250 27/23 A2994 RMK AO2 SLP139 T02720233 $
Loading
Personal Weather Stations






























Interactive Weather Map New forecast layout! Learn more

10-Day Weather Forecast

Advertisements
Track Severe Weather on mobile